Aérodrome :







RETROUVEZ-NOUS SUR...

 
LOGIN :

S'inscrire | Disclaimer

   EN    FR    IT 

 









Légende :    VFR   VFR Marginal   IFR   IFR Intensif   IFR Très Intensif
Visi : 
Plafond : 
>= 8 km
>= 3000ft
5 à 8 km
1000 à 3000 ft
1500m à 5 km
500 à 1000 ft
800 à 1500m
200 à 500 ft
< 800m
< 200 ft
Symboles :   Orages  Brouillard  Fortes neiges  Fortes précipitations  Vent > 20 kt






- Altitude de l'aérodrome : 20 ft
- Code IATA : BOS


KBOS - General Edward Lawrence Logan International

DERNIER METAR :
  • 032254Z 03011KT 5SM BR OVC007 17/16 A2991 RMK AO2 SLP127 VIS E-SE 3 T01720156 $

METARs EXPIRÉS :
  • 032154Z 03011KT 7SM OVC009 18/16 A2991 RMK AO2 SLP128 VIS E-SE 3 T01780156 $
  • 032054Z 02013KT 7SM OVC013 19/16 A2990 RMK AO2 SLP126 T01890156 58002 $

TAF KBOS
Valide du 03 à 21h jusqu'au 05 à 00h UTC


032030Z 0321/0424 03012KT P6SM OVC013
FM032200 04010KT P6SM OVC008
FM040400 03007KT 5SM BR OVC008
FM041500 06007KT P6SM BKN015
FM041800 09009KT P6SM SCT050
FIR KZBW / Amérique du Nord



MET'MAP, la Météo Aéronautique d'un coup d'oeil ! - Copyright ORBIFLY Décembre 2007 - Disclaimer

ORBIFLY MET'MAP TEAM :

Programmation & Développement : Alexandra Zaïnal
Sur une idée originale de : Baudouin d'Aumeries
Assistance à la programmation : Marc-Olivier Méhu
Soutien technique & logistique : Manuel Goepfert

Contact : metmap@orbifly.com




SOURCES & CREDITS :

   NOAA